Epsom, NH (03234)

4:01 AM EST on February 09, 2016 (GMT -0500)
KNHCHICH2 | | Change Station
CLOSE
Current Station
Personal Weather Station
Location: Chichester, NH
Elevation: 689 ft
Nearby Weather Stations

Elev 689 ft 43.21 °N, 71.41 °W | Updated 10 minutes ago

Overcast
Overcast
16.6 °F
Feels Like 17 °F
N
0.0
Wind Variable Wind from NE
Gusts 1.0 mph

Today
High -- | Low -- °F
--% Chance of Precip.
Yesterday
High -- | Low -- °F
Precip. -- in
Pressure 29.77 in
Visibility 3.0 miles
Clouds Mostly Cloudy 2600 ft
Overcast 6500 ft
Windchill 17 °F
Dew Point 15 °F
Humidity 91%
Rainfall 0.00 in
Snow Depth Not available.
6:52 AM 5:07 PM
New Moon, 1% visible
METAR KCON 090851Z AUTO 00000KT 3SM -SN BR BKN026 OVC065 M07/M09 A2975 RMK AO2 SLP080 P0001 60002 T10721094 58009
Pressure 29.77 in
Visibility 3.0 miles
Clouds Mostly Cloudy 2600 ft
Overcast 6500 ft
Windchill 17 °F
Dew Point 15 °F
Humidity 91%
Rainfall 0.00 in
Snow Depth Not available.
6:52 AM 5:07 PM
New Moon, 1% visible
METAR KCON 090851Z AUTO 00000KT 3SM -SN BR BKN026 OVC065 M07/M09 A2975 RMK AO2 SLP080 P0001 60002 T10721094 58009

10-Day Weather Forecast

Almanac

Astronomy

Feb. 09, 2016 Rise Set
Actual Time
Civil Twilight
Nautical Twilight
Astronomical Twilight
Moon
Length of Visible Light
Length of Day
Tomorrow will be .
, % of the Moon is Illuminated

Today's Extremes

State Highs State Lows

Community

WunderPhotos

Upload Photos

1,891,571 photos uploaded!

WunderBlog® & News

Nearby

Air Quality

  Air Quality AQ Index Pollutant
Not available.

Snow Depth

Station Depth Elevation

Earthquake Activity

City Distance Mag. Time & Date
Minimum magnitude displayed is 2.5.

Coastal Water Temperatures

Place Temperature

Stations

Nearby Weather Stations

Station Location Temp. Windchill Dew Point Humidity Wind Precip. Elev Updated Type
                   

Watches & Warnings

There are currently no watches in effect.